Terminal Aerodrome Forecast
Issued by NWS Twin Cities, MN

Home | Current Version | Previous Version | Graphics & Text | Print | Product List | Glossary On
Versions: 1 2 3 4 5 6 7 8 9 10 11 12 13 14 15 16 17 18 19 20 21 22 23 24 25 26
000
FTUS43 KMPX 282102 AAA
TAFMSP
TAF AMD
KMSP 282102Z 2821/2924 15011KT P6SM SCT035 BKN100
     FM290100 13008KT P6SM SCT250
     FM291000 VRB03KT 6SM BR BCFG SCT003
     FM291400 11004KT P6SM SKC=

USA.gov is the U.S. government's official web portal to all federal, state and local government web resources and services.